Time;durP1;ratioP1;P1;durP2;ratioP2;P2;SDS_P1;SDS_P2;PMS_P1;PMS_P2;Temp;Humidity;BMP_temperature;BMP_pressure;BME280_temperature;BME280_humidity;BME280_pressure;Samples;Min_cycle;Max_cycle;Signal;HPM_P1;HPM_P2
2022/07/20 00:01:44;;;;;;;11.70;5.43;;;23.00;86.90;;;;;;5013642;28;20454;-68
2022/07/20 00:04:11;;;;;;;9.87;4.70;;;23.00;87.50;;;;;;5012460;28;21168;-69
2022/07/20 00:06:37;;;;;;;11.73;4.03;;;22.90;87.60;;;;;;5011340;28;20596;-68
2022/07/20 00:11:48;;;;;;;7.57;4.83;;;22.80;87.90;;;;;;5013960;28;20460;-68
2022/07/20 00:14:16;;;;;;;9.93;5.00;;;22.80;88.00;;;;;;5017452;28;20445;-69
2022/07/20 00:16:43;;;;;;;9.30;5.20;;;22.70;88.10;;;;;;5020187;28;20472;-68
2022/07/20 00:19:10;;;;;;;10.27;4.40;;;22.70;88.50;;;;;;5018753;28;20996;-69
2022/07/20 00:21:36;;;;;;;10.10;4.70;;;22.60;88.60;;;;;;5020336;28;20445;-68
2022/07/20 00:24:03;;;;;;;7.63;4.57;;;22.60;88.70;;;;;;5014594;28;20954;-68
2022/07/20 00:26:30;;;;;;;8.17;4.43;;;22.50;89.30;;;;;;5018566;28;20480;-68
2022/07/20 00:28:57;;;;;;;8.70;4.40;;;22.50;89.60;;;;;;5022877;28;20450;-68
2022/07/20 00:31:25;;;;;;;7.47;4.57;;;22.50;89.60;;;;;;5015462;28;20505;-69
2022/07/20 00:33:51;;;;;;;6.40;4.87;;;22.40;90.00;;;;;;5017138;28;20450;-68
2022/07/20 00:36:19;;;;;;;10.03;5.20;;;22.30;90.20;;;;;;5013684;28;20478;-68
2022/07/20 00:38:46;;;;;;;17.73;5.83;;;22.30;90.50;;;;;;5019940;28;20863;-68
2022/07/20 00:41:14;;;;;;;7.93;5.23;;;22.20;90.70;;;;;;5021232;28;20457;-68
2022/07/20 00:43:54;;;;;;;5.93;5.10;;;22.20;90.80;;;;;;5024274;28;20883;-68
2022/07/20 00:46:21;;;;;;;7.33;4.70;;;22.10;90.90;;;;;;5019997;28;20512;-68
2022/07/20 00:48:49;;;;;;;7.57;4.77;;;22.00;90.90;;;;;;5013461;28;20450;-68
2022/07/20 00:51:16;;;;;;;11.93;5.43;;;22.00;91.00;;;;;;5015935;28;20450;-68
2022/07/20 00:53:43;;;;;;;8.23;4.50;;;22.00;91.00;;;;;;5024013;28;20496;-68
2022/07/20 00:56:11;;;;;;;10.10;5.60;;;22.00;91.10;;;;;;5017574;28;20524;-68
2022/07/20 00:58:38;;;;;;;5.07;4.57;;;21.90;91.20;;;;;;5027826;28;20863;-68
2022/07/20 01:01:04;;;;;;;6.50;4.57;;;21.90;91.30;;;;;;5019777;28;20450;-69
2022/07/20 01:03:31;;;;;;;8.30;5.33;;;21.90;91.70;;;;;;5017652;28;20523;-68
2022/07/20 01:05:59;;;;;;;7.90;5.20;;;21.80;91.70;;;;;;5017025;28;20477;-68
2022/07/20 01:08:27;;;;;;;7.70;5.30;;;21.80;91.90;;;;;;5014446;28;20450;-68
2022/07/20 01:10:55;;;;;;;11.93;5.47;;;21.70;92.20;;;;;;5016890;28;20989;-68
2022/07/20 01:13:22;;;;;;;7.03;5.93;;;21.70;92.20;;;;;;5017411;28;20488;-68
2022/07/20 01:15:49;;;;;;;9.50;5.70;;;21.70;92.40;;;;;;5019484;28;20528;-68
2022/07/20 01:18:16;;;;;;;7.47;5.10;;;21.60;92.50;;;;;;5020617;28;20481;-68
2022/07/20 01:20:45;;;;;;;7.23;4.90;;;21.50;92.50;;;;;;5015208;28;20454;-68
2022/07/20 01:23:13;;;;;;;12.27;6.20;;;21.50;92.60;;;;;;5023431;28;20957;-69
2022/07/20 01:25:40;;;;;;;8.53;5.20;;;21.40;92.80;;;;;;5027028;28;20856;-68
2022/07/20 01:28:07;;;;;;;10.10;4.57;;;21.30;92.40;;;;;;5028230;28;20519;-68
2022/07/20 01:30:34;;;;;;;9.30;4.80;;;21.30;92.20;;;;;;5028107;28;20450;-68
2022/07/20 01:33:00;;;;;;;12.27;5.33;;;21.20;92.00;;;;;;5031814;28;20485;-68
2022/07/20 01:35:27;;;;;;;6.03;4.50;;;21.20;92.00;;;;;;5024125;28;20868;-69
2022/07/20 01:37:54;;;;;;;6.60;4.40;;;21.00;92.10;;;;;;5022166;28;20453;-68
2022/07/20 01:40:22;;;;;;;8.17;5.40;;;21.00;92.40;;;;;;5027842;28;20723;-68
2022/07/20 01:42:49;;;;;;;7.33;4.73;;;20.90;92.60;;;;;;5014117;28;20863;-68
2022/07/20 01:45:16;;;;;;;11.70;4.60;;;20.80;92.70;;;;;;5019431;28;20512;-68
2022/07/20 01:47:43;;;;;;;9.50;4.97;;;20.80;93.00;;;;;;5031119;28;20509;-68
2022/07/20 01:50:10;;;;;;;10.60;4.93;;;20.70;93.10;;;;;;5016965;28;20453;-68
2022/07/20 01:52:37;;;;;;;12.23;5.60;;;20.60;93.40;;;;;;5014938;28;20500;-68
2022/07/20 01:55:04;;;;;;;11.60;5.87;;;20.60;93.50;;;;;;5014230;28;20458;-68
2022/07/20 01:57:32;;;;;;;18.63;5.50;;;20.60;93.80;;;;;;5029458;28;20527;-69
2022/07/20 01:59:59;;;;;;;27.40;5.50;;;20.50;93.90;;;;;;5020381;28;20454;-68
2022/07/20 02:02:26;;;;;;;9.43;4.90;;;20.50;94.00;;;;;;5014081;28;20475;-68
2022/07/20 02:04:52;;;;;;;10.60;5.10;;;20.50;94.10;;;;;;5014802;28;20946;-68
2022/07/20 02:07:19;;;;;;;9.60;5.13;;;20.50;94.30;;;;;;5018926;28;20476;-68
2022/07/20 02:09:45;;;;;;;6.40;5.17;;;20.50;94.40;;;;;;5030574;28;20457;-68
2022/07/20 02:12:12;;;;;;;5.60;4.40;;;20.40;94.40;;;;;;5025607;28;21017;-68
2022/07/20 02:14:40;;;;;;;8.90;4.87;;;20.40;94.40;;;;;;5014455;28;20421;-68
2022/07/20 02:17:07;;;;;;;15.50;5.30;;;20.40;94.50;;;;;;5022790;28;20540;-68
2022/07/20 02:19:33;;;;;;;7.63;5.40;;;20.30;94.60;;;;;;5026857;28;20454;-68
2022/07/20 02:22:00;;;;;;;8.83;4.80;;;20.30;94.70;;;;;;5013922;28;20450;-69
2022/07/20 02:24:26;;;;;;;16.27;5.37;;;20.30;94.70;;;;;;5025563;28;20481;-68
2022/07/20 02:26:53;;;;;;;13.83;4.87;;;20.30;94.80;;;;;;5016192;28;20520;-68
2022/07/20 02:29:20;;;;;;;15.40;4.67;;;20.20;95.00;;;;;;5022070;28;21004;-68
2022/07/20 02:31:48;;;;;;;7.53;5.27;;;20.20;95.10;;;;;;5012773;28;20484;-68
2022/07/20 02:34:14;;;;;;;8.30;5.40;;;20.20;95.30;;;;;;5022111;28;20449;-68
2022/07/20 02:36:41;;;;;;;7.40;5.57;;;20.20;95.50;;;;;;5027184;28;20871;-68
2022/07/20 02:39:08;;;;;;;7.00;5.10;;;20.10;95.60;;;;;;5022375;28;20887;-68
2022/07/20 02:41:34;;;;;;;10.87;5.00;;;20.10;95.80;;;;;;5029529;28;20464;-68
2022/07/20 02:44:01;;;;;;;11.50;5.23;;;20.00;95.90;;;;;;5013528;28;20454;-68
2022/07/20 02:46:28;;;;;;;12.63;5.97;;;20.00;96.00;;;;;;5019511;28;20465;-68
2022/07/20 02:48:56;;;;;;;12.53;5.80;;;20.00;96.20;;;;;;5021407;28;21025;-68
2022/07/20 02:51:22;;;;;;;9.47;5.20;;;20.00;96.70;;;;;;5011118;28;20477;-68
2022/07/20 02:53:49;;;;;;;6.33;5.00;;;20.00;96.70;;;;;;5012240;28;20489;-68
2022/07/20 02:56:16;;;;;;;6.10;5.03;;;20.00;96.90;;;;;;5015564;28;20470;-68
2022/07/20 02:58:42;;;;;;;13.10;6.50;;;19.90;96.90;;;;;;5019118;28;20877;-68
2022/07/20 03:01:09;;;;;;;5.73;5.20;;;19.90;97.00;;;;;;5027222;28;20511;-68
2022/07/20 03:03:36;;;;;;;20.17;5.70;;;19.90;97.10;;;;;;5019313;28;20473;-68
2022/07/20 03:06:04;;;;;;;14.97;6.33;;;19.80;97.30;;;;;;5015544;28;20466;-68
2022/07/20 03:08:30;;;;;;;19.17;6.13;;;19.80;97.70;;;;;;5023842;28;20461;-69
2022/07/20 03:10:57;;;;;;;15.90;6.20;;;19.70;98.00;;;;;;5017158;28;20501;-69
2022/07/20 03:13:24;;;;;;;15.77;7.30;;;19.60;98.00;;;;;;5027898;28;20903;-69
2022/07/20 03:15:50;;;;;;;10.33;6.10;;;19.60;98.10;;;;;;5017729;28;20469;-68
2022/07/20 03:18:17;;;;;;;18.37;6.97;;;19.50;98.30;;;;;;5027150;28;20454;-69
2022/07/20 03:20:44;;;;;;;11.87;6.70;;;19.50;98.40;;;;;;5023913;28;20462;-69
2022/07/20 03:23:13;;;;;;;12.93;5.63;;;19.40;98.70;;;;;;5013713;28;21011;-69
2022/07/20 03:25:39;;;;;;;20.97;6.87;;;19.30;99.10;;;;;;5017544;28;20457;-69
2022/07/20 03:28:06;;;;;;;18.13;5.80;;;19.30;99.30;;;;;;5011801;28;20450;-69
2022/07/20 03:30:33;;;;;;;22.83;6.30;;;19.30;99.80;;;;;;5019029;28;20458;-69
2022/07/20 03:32:59;;;;;;;15.83;6.33;;;19.30;99.90;;;;;;5017830;28;20535;-69
2022/07/20 03:35:26;;;;;;;9.20;6.20;;;19.30;99.90;;;;;;5013621;28;21020;-69
2022/07/20 03:37:53;;;;;;;21.40;6.97;;;19.20;99.90;;;;;;5019253;28;20474;-68
2022/07/20 03:40:21;;;;;;;13.10;5.50;;;19.20;99.90;;;;;;5020494;28;20484;-69
2022/07/20 03:42:47;;;;;;;17.70;6.80;;;19.20;99.90;;;;;;5017744;28;20558;-69
2022/07/20 03:45:14;;;;;;;9.90;5.57;;;19.20;99.90;;;;;;5023213;28;20525;-70
2022/07/20 03:47:40;;;;;;;10.30;5.50;;;19.20;99.90;;;;;;5020138;28;20456;-69
2022/07/20 03:50:07;;;;;;;16.07;5.93;;;19.10;99.90;;;;;;5019920;28;20474;-69
2022/07/20 03:52:34;;;;;;;17.90;6.33;;;19.10;99.90;;;;;;5016717;28;20453;-69
2022/07/20 03:55:01;;;;;;;13.97;6.00;;;19.10;99.90;;;;;;5017681;28;20495;-69
2022/07/20 03:57:29;;;;;;;14.67;6.70;;;19.10;99.90;;;;;;5029595;28;20469;-69
2022/07/20 03:59:55;;;;;;;8.30;5.87;;;19.10;99.90;;;;;;5017051;28;20942;-69
2022/07/20 04:02:22;;;;;;;14.73;6.40;;;19.10;99.90;;;;;;5011916;28;20454;-69
2022/07/20 04:04:48;;;;;;;11.40;5.93;;;19.10;99.90;;;;;;5014595;28;20453;-69
2022/07/20 04:07:15;;;;;;;11.77;6.57;;;19.10;99.90;;;;;;5014813;28;20444;-69
2022/07/20 04:09:45;;;;;;;14.30;5.57;;;19.20;99.90;;;;;;5017098;28;20441;-69
2022/07/20 04:12:14;;;;;;;19.80;6.37;;;19.20;99.90;;;;;;5021239;28;20465;-69
2022/07/20 04:14:42;;;;;;;10.93;5.97;;;19.30;99.90;;;;;;5011028;28;20427;-68
2022/07/20 04:17:09;;;;;;;19.30;6.90;;;19.30;99.90;;;;;;5011231;28;20489;-71
2022/07/20 04:19:36;;;;;;;11.83;6.20;;;19.40;99.90;;;;;;5017307;28;20584;-72
2022/07/20 04:22:03;;;;;;;5.53;4.47;;;19.50;99.90;;;;;;5022806;28;20933;-71
2022/07/20 04:24:30;;;;;;;10.70;6.00;;;19.70;99.90;;;;;;5021920;28;20867;-71
2022/07/20 04:26:57;;;;;;;20.73;6.60;;;19.80;99.90;;;;;;5015212;28;20483;-71
2022/07/20 04:29:23;;;;;;;16.40;7.67;;;19.90;99.90;;;;;;5018117;28;20456;-72
2022/07/20 04:31:52;;;;;;;15.80;7.43;;;19.90;99.90;;;;;;5013382;28;20446;-71
2022/07/20 04:34:19;;;;;;;19.70;6.87;;;20.00;99.90;;;;;;5016832;28;20544;-71
2022/07/20 04:36:45;;;;;;;12.90;7.23;;;20.10;99.90;;;;;;5017022;28;21293;-72
2022/07/20 04:39:12;;;;;;;14.43;6.90;;;20.30;99.90;;;;;;5017034;28;20589;-71
2022/07/20 04:41:39;;;;;;;17.13;6.60;;;20.40;99.90;;;;;;5014578;28;20450;-71
2022/07/20 04:44:06;;;;;;;22.93;6.73;;;20.50;99.90;;;;;;5014804;28;20524;-72
2022/07/20 04:46:33;;;;;;;23.23;6.77;;;20.60;99.90;;;;;;5026760;28;20481;-71
2022/07/20 04:49:01;;;;;;;20.03;6.93;;;20.70;99.90;;;;;;5023343;28;20450;-71
2022/07/20 04:51:28;;;;;;;27.63;6.83;;;20.80;99.90;;;;;;5014491;28;21101;-71
2022/07/20 04:53:54;;;;;;;22.30;8.17;;;20.90;99.90;;;;;;5020764;28;20560;-71
2022/07/20 04:56:21;;;;;;;26.03;7.10;;;21.10;99.90;;;;;;5015817;28;20993;-71
2022/07/20 04:58:50;;;;;;;18.97;7.07;;;21.20;99.90;;;;;;5017832;28;20449;-71
2022/07/20 05:01:17;;;;;;;29.00;6.80;;;21.30;99.90;;;;;;5025355;28;20512;-71
2022/07/20 05:03:43;;;;;;;11.70;5.90;;;21.40;99.90;;;;;;5020998;28;20499;-71
2022/07/20 05:06:11;;;;;;;18.33;6.97;;;21.50;99.90;;;;;;5027644;28;21000;-71
2022/07/20 05:08:38;;;;;;;11.03;6.23;;;21.70;99.90;;;;;;5009434;28;20457;-71
2022/07/20 05:11:05;;;;;;;30.90;7.57;;;21.80;99.90;;;;;;5015150;28;20451;-71
2022/07/20 05:13:31;;;;;;;21.30;6.33;;;21.90;99.90;;;;;;5023529;28;20547;-71
2022/07/20 05:15:58;;;;;;;19.07;6.13;;;22.00;99.90;;;;;;5022718;28;20532;-71
2022/07/20 05:18:25;;;;;;;32.17;6.30;;;22.00;99.90;;;;;;5023939;28;20496;-71
2022/07/20 05:20:51;;;;;;;12.37;5.50;;;22.10;99.90;;;;;;5027200;28;20469;-71
2022/07/20 05:23:19;;;;;;;16.40;6.17;;;22.20;99.90;;;;;;5021555;28;20867;-71
2022/07/20 05:25:46;;;;;;;10.80;5.33;;;22.10;99.90;;;;;;5014453;28;20875;-71
2022/07/20 05:28:17;;;;;;;9.70;5.60;;;22.00;99.90;;;;;;5014993;28;20462;-71
2022/07/20 05:30:43;;;;;;;11.27;5.17;;;22.10;99.90;;;;;;5011440;28;20817;-73
2022/07/20 05:33:10;;;;;;;17.40;5.03;;;22.30;99.90;;;;;;5019917;28;20477;-72
2022/07/20 05:35:37;;;;;;;8.13;5.60;;;22.50;99.90;;;;;;5023372;28;20457;-72
2022/07/20 05:38:03;;;;;;;8.63;4.87;;;22.60;99.90;;;;;;5009584;28;20930;-73
2022/07/20 05:40:31;;;;;;;12.03;5.50;;;22.70;99.90;;;;;;5019205;28;21046;-73
2022/07/20 05:42:58;;;;;;;12.53;5.10;;;22.90;99.90;;;;;;5014425;28;20447;-73
2022/07/20 05:45:25;;;;;;;7.83;4.83;;;23.10;99.90;;;;;;5011242;28;20873;-72
2022/07/20 05:47:51;;;;;;;10.60;5.80;;;23.40;99.10;;;;;;5012589;28;20470;-72
2022/07/20 05:50:18;;;;;;;11.30;5.27;;;23.60;99.00;;;;;;5007504;28;20516;-72
2022/07/20 05:52:45;;;;;;;18.33;4.47;;;23.90;97.50;;;;;;5019613;28;20923;-71
2022/07/20 05:55:11;;;;;;;9.23;4.57;;;24.10;96.60;;;;;;5011389;28;20644;-72
2022/07/20 05:57:40;;;;;;;9.37;4.07;;;24.30;94.80;;;;;;5018821;28;20540;-71
2022/07/20 06:00:08;;;;;;;7.40;4.90;;;24.50;95.50;;;;;;5012791;28;20450;-71
2022/07/20 06:02:35;;;;;;;6.83;4.60;;;24.70;94.00;;;;;;5012356;28;20544;-71
2022/07/20 06:05:01;;;;;;;9.57;4.37;;;25.00;94.60;;;;;;5013552;28;20454;-71
2022/07/20 06:07:28;;;;;;;8.30;4.50;;;25.10;93.90;;;;;;5013333;28;20474;-71
2022/07/20 06:09:54;;;;;;;14.40;5.10;;;25.30;93.60;;;;;;5013796;28;20508;-71
2022/07/20 06:12:21;;;;;;;13.53;5.00;;;25.50;93.00;;;;;;5013955;28;20453;-71
2022/07/20 06:14:49;;;;;;;17.90;4.47;;;25.60;91.80;;;;;;5013358;28;20489;-71
2022/07/20 06:17:16;;;;;;;10.90;4.33;;;25.60;91.00;;;;;;5013914;28;20470;-71
2022/07/20 06:19:42;;;;;;;7.03;4.30;;;25.60;90.60;;;;;;5013736;28;20454;-71
2022/07/20 06:22:09;;;;;;;12.10;4.57;;;25.70;90.30;;;;;;5013828;28;20485;-71
2022/07/20 06:24:36;;;;;;;5.17;4.13;;;25.70;90.40;;;;;;5013310;28;20462;-71
2022/07/20 06:27:02;;;;;;;4.70;4.30;;;25.90;90.90;;;;;;5013542;28;20466;-71
2022/07/20 06:29:29;;;;;;;6.80;4.20;;;26.10;90.00;;;;;;5013226;28;20887;-71
2022/07/20 06:31:57;;;;;;;5.17;4.00;;;26.20;89.70;;;;;;5013628;28;20524;-71
2022/07/20 06:34:23;;;;;;;5.03;3.80;;;26.40;89.60;;;;;;5013270;28;20950;-71
2022/07/20 06:36:50;;;;;;;8.30;3.83;;;26.50;88.50;;;;;;5013109;28;21057;-71
2022/07/20 06:39:17;;;;;;;10.00;4.20;;;26.60;87.90;;;;;;5013470;28;20870;-71
2022/07/20 06:41:43;;;;;;;10.73;3.83;;;26.70;87.70;;;;;;5013097;28;20455;-71
2022/07/20 06:44:10;;;;;;;10.90;4.17;;;26.80;87.20;;;;;;5013326;28;20504;-71
2022/07/20 06:46:37;;;;;;;5.27;4.20;;;26.80;87.20;;;;;;5013245;28;20524;-71
2022/07/20 06:49:06;;;;;;;7.13;3.70;;;27.10;86.60;;;;;;5013341;28;20496;-71
2022/07/20 06:51:32;;;;;;;5.10;3.90;;;27.30;86.20;;;;;;5013107;28;21005;-71
2022/07/20 06:53:59;;;;;;;5.27;4.00;;;27.40;86.90;;;;;;5012770;28;20478;-71
2022/07/20 06:56:26;;;;;;;9.93;4.87;;;27.50;86.30;;;;;;5012641;28;20494;-71
2022/07/20 06:58:52;;;;;;;5.57;3.90;;;27.50;86.00;;;;;;5013271;28;20561;-71
2022/07/20 07:01:19;;;;;;;7.07;3.87;;;27.60;85.70;;;;;;5013013;28;20454;-71
2022/07/20 07:03:46;;;;;;;5.67;3.90;;;27.70;85.30;;;;;;5012500;28;20998;-71
2022/07/20 07:06:14;;;;;;;4.57;3.93;;;27.80;85.00;;;;;;5012640;28;20466;-71
2022/07/20 07:08:40;;;;;;;5.93;3.70;;;28.00;84.90;;;;;;5012594;28;20453;-71
2022/07/20 07:11:07;;;;;;;11.70;4.07;;;28.00;85.10;;;;;;5012767;28;20468;-71
2022/07/20 07:13:33;;;;;;;10.83;4.00;;;28.20;84.40;;;;;;5012524;28;21010;-71
2022/07/20 07:16:00;;;;;;;9.20;4.00;;;28.40;84.40;;;;;;5012636;28;21022;-71
2022/07/20 07:18:27;;;;;;;7.23;3.83;;;28.50;83.60;;;;;;5012847;28;20573;-71
2022/07/20 07:20:53;;;;;;;7.00;4.00;;;28.60;83.70;;;;;;5012479;28;20449;-71
2022/07/20 07:23:21;;;;;;;11.13;4.80;;;28.80;84.50;;;;;;5012599;28;20479;-71
2022/07/20 07:25:48;;;;;;;8.90;4.27;;;29.00;83.00;;;;;;5012253;28;20863;-72
2022/07/20 07:28:15;;;;;;;13.87;3.90;;;29.10;83.60;;;;;;5012746;28;20493;-71
2022/07/20 07:30:42;;;;;;;10.63;3.77;;;29.20;82.90;;;;;;5012414;28;20822;-72
2022/07/20 07:33:08;;;;;;;8.33;4.00;;;29.30;83.50;;;;;;5012335;28;20454;-72
2022/07/20 07:35:35;;;;;;;9.17;3.57;;;29.40;82.30;;;;;;5012145;28;20516;-72
2022/07/20 07:38:02;;;;;;;12.37;4.37;;;29.60;82.60;;;;;;5012618;28;20877;-72
2022/07/20 07:40:30;;;;;;;11.97;3.90;;;29.90;82.30;;;;;;5012512;28;20450;-71
2022/07/20 07:42:56;;;;;;;9.73;4.00;;;30.00;80.00;;;;;;5012160;28;20450;-71
2022/07/20 07:45:23;;;;;;;7.20;3.77;;;30.00;80.70;;;;;;5012097;28;20512;-72
2022/07/20 07:47:50;;;;;;;5.10;4.10;;;30.10;80.00;;;;;;5012263;28;20478;-71
2022/07/20 07:50:16;;;;;;;6.87;4.37;;;30.10;80.10;;;;;;5011917;28;20450;-72
2022/07/20 07:52:43;;;;;;;13.00;4.13;;;30.30;80.80;;;;;;5012375;28;20450;-72
2022/07/20 07:55:10;;;;;;;11.40;3.90;;;30.50;80.90;;;;;;5011946;28;20514;-72
2022/07/20 07:57:38;;;;;;;4.53;3.90;;;30.60;79.90;;;;;;5012143;28;20469;-72
2022/07/20 08:00:07;;;;;;;7.03;3.73;;;30.70;79.40;;;;;;5012038;28;20442;-72
2022/07/20 08:02:33;;;;;;;4.90;3.87;;;30.60;79.50;;;;;;5011881;28;20454;-72
2022/07/20 08:05:00;;;;;;;11.93;3.53;;;30.70;80.30;;;;;;5011677;28;20454;-72
2022/07/20 08:07:27;;;;;;;6.30;4.10;;;30.80;80.40;;;;;;5011277;28;20531;-72
2022/07/20 08:09:54;;;;;;;7.27;3.57;;;30.80;79.70;;;;;;5011949;28;20450;-72
2022/07/20 08:12:21;;;;;;;7.97;4.57;;;30.80;79.60;;;;;;5011811;28;20524;-72
2022/07/20 08:14:49;;;;;;;9.90;4.43;;;30.80;80.60;;;;;;5011446;28;21005;-72
2022/07/20 08:17:15;;;;;;;8.93;4.20;;;30.90;79.80;;;;;;5011898;28;20473;-72
2022/07/20 08:19:42;;;;;;;6.67;4.00;;;31.00;79.70;;;;;;5012005;28;20589;-72
2022/07/20 08:22:08;;;;;;;7.13;4.30;;;31.20;79.70;;;;;;5011794;28;20458;-72
2022/07/20 08:24:35;;;;;;;5.40;4.03;;;31.40;79.50;;;;;;5011537;28;20540;-72
2022/07/20 08:27:02;;;;;;;4.27;3.87;;;31.30;79.40;;;;;;5011700;28;20880;-74
2022/07/20 08:29:28;;;;;;;8.40;3.70;;;31.40;79.60;;;;;;5012099;28;20508;-72
2022/07/20 08:31:56;;;;;;;8.00;4.30;;;31.50;79.50;;;;;;5011998;28;20482;-72
2022/07/20 08:34:23;;;;;;;8.40;3.83;;;31.60;78.80;;;;;;5011647;28;20478;-72
2022/07/20 08:36:50;;;;;;;9.77;3.90;;;31.60;78.80;;;;;;5011684;28;20466;-72
2022/07/20 08:39:17;;;;;;;12.17;4.10;;;31.60;78.70;;;;;;5011740;28;20520;-72
2022/07/20 08:41:45;;;;;;;4.43;3.80;;;31.70;79.20;;;;;;5011516;28;20446;-71
2022/07/20 08:44:11;;;;;;;11.07;3.90;;;31.90;78.80;;;;;;5011449;28;20446;-71
2022/07/20 08:46:38;;;;;;;6.63;4.10;;;32.20;79.00;;;;;;5011679;28;20486;-71
2022/07/20 08:49:07;;;;;;;7.33;3.83;;;32.50;78.60;;;;;;5011643;28;20454;-71
2022/07/20 08:51:34;;;;;;;9.50;4.30;;;32.70;77.50;;;;;;5011490;28;20946;-71
2022/07/20 08:54:00;;;;;;;7.83;3.87;;;32.70;78.10;;;;;;5011302;28;20482;-71
2022/07/20 08:56:27;;;;;;;4.63;4.00;;;32.80;78.60;;;;;;5011229;28;20470;-72
2022/07/20 08:58:54;;;;;;;9.20;3.90;;;32.90;77.10;;;;;;5011783;28;20541;-71
2022/07/20 09:01:21;;;;;;;5.63;4.30;;;32.90;77.50;;;;;;5011614;28;20454;-71
2022/07/20 09:04:05;;;;;;;7.90;4.07;;;33.00;77.00;;;;;;5011242;28;20504;-71
2022/07/20 09:06:34;;;;;;;4.70;3.73;;;33.00;77.20;;;;;;5010970;28;20528;-71
2022/07/20 09:09:02;;;;;;;7.40;4.00;;;33.00;76.40;;;;;;5011499;28;20454;-71
2022/07/20 09:11:29;;;;;;;10.73;4.10;;;33.30;77.50;;;;;;5011346;28;20508;-71
2022/07/20 09:13:56;;;;;;;5.33;3.73;;;33.50;75.80;;;;;;5011147;28;20524;-71
2022/07/20 09:16:32;;;;;;;6.50;3.80;;;33.60;75.30;;;;;;5011328;28;20524;-71
2022/07/20 09:18:59;;;;;;;8.10;4.20;;;33.60;75.60;;;;;;5012916;28;20540;-71
2022/07/20 09:21:30;;;;;;;7.57;4.00;;;33.90;75.00;;;;;;5014983;28;20458;-71
2022/07/20 09:24:03;;;;;;;8.87;3.47;;;34.10;75.20;;;;;;5014788;28;20453;-71
2022/07/20 09:26:30;;;;;;;8.93;3.93;;;34.30;75.10;;;;;;5014462;28;20485;-71
2022/07/20 09:28:58;;;;;;;7.37;4.07;;;34.60;74.60;;;;;;5014706;28;20450;-71
2022/07/20 09:31:29;;;;;;;6.60;3.50;;;34.80;74.10;;;;;;5014356;28;20550;-71
2022/07/20 09:33:59;;;;;;;9.67;3.80;;;35.20;75.00;;;;;;5014591;28;20458;-71
2022/07/20 09:36:29;;;;;;;7.90;3.90;;;35.50;72.80;;;;;;5014480;28;20478;-71
2022/07/20 09:39:05;;;;;;;8.90;4.13;;;35.50;71.30;;;;;;5014700;28;20450;-71
2022/07/20 09:41:34;;;;;;;5.17;3.60;;;35.30;72.50;;;;;;5014449;28;20961;-71
2022/07/20 09:44:03;;;;;;;4.33;4.03;;;35.30;72.50;;;;;;5014139;28;20446;-71
2022/07/20 09:46:32;;;;;;;6.90;4.00;;;35.20;71.40;;;;;;5014509;28;20474;-71
2022/07/20 09:49:01;;;;;;;5.63;4.13;;;35.20;71.20;;;;;;5014493;28;20917;-71
2022/07/20 09:51:32;;;;;;;8.60;3.77;;;35.60;71.70;;;;;;5014346;28;20454;-71
2022/07/20 09:54:01;;;;;;;8.97;3.97;;;35.90;70.70;;;;;;5013890;28;20460;-71
2022/07/20 09:56:28;;;;;;;7.33;4.00;;;36.00;68.30;;;;;;5013857;28;20969;-71
2022/07/20 09:58:57;;;;;;;6.17;3.90;;;36.20;71.50;;;;;;5014272;28;20873;-71
2022/07/20 10:01:27;;;;;;;6.33;4.30;;;36.40;68.80;;;;;;5014145;28;20500;-71
2022/07/20 10:03:56;;;;;;;6.50;3.60;;;36.20;69.50;;;;;;5013708;28;20450;-71
2022/07/20 10:06:24;;;;;;;18.10;4.70;;;36.20;69.10;;;;;;5013542;28;20466;-71
2022/07/20 10:08:52;;;;;;;8.73;4.30;;;36.00;67.70;;;;;;5013984;28;20462;-71
2022/07/20 10:11:20;;;;;;;12.07;5.00;;;35.60;68.30;;;;;;5013983;28;20509;-71
2022/07/20 10:13:48;;;;;;;10.03;4.20;;;35.50;69.30;;;;;;5013584;28;20446;-71
2022/07/20 10:16:21;;;;;;;6.00;4.17;;;35.70;68.30;;;;;;5013779;28;20490;-71
2022/07/20 10:18:48;;;;;;;6.50;4.73;;;35.80;69.10;;;;;;5013673;28;20504;-71
2022/07/20 10:21:32;;;;;;;6.10;4.53;;;36.20;69.10;;;;;;5013887;28;20466;-71
2022/07/20 10:24:15;;;;;;;7.00;3.83;;;36.70;68.60;;;;;;5013495;28;20445;-71
2022/07/20 10:26:42;;;;;;;7.40;4.10;;;37.40;67.40;;;;;;5013657;28;20469;-71
2022/07/20 10:29:09;;;;;;;4.37;3.97;;;37.80;67.70;;;;;;5013051;28;20461;-71
2022/07/20 10:31:50;;;;;;;13.90;4.40;;;38.30;66.10;;;;;;5013373;28;20456;-71
2022/07/20 10:34:35;;;;;;;11.80;4.30;;;38.50;66.20;;;;;;5013233;28;20453;-71
2022/07/20 10:37:23;;;;;;;6.60;4.00;;;38.90;65.50;;;;;;5013293;28;20957;-71
2022/07/20 10:39:52;;;;;;;10.53;3.73;;;38.70;65.00;;;;;;5013207;28;20484;-71
2022/07/20 10:42:28;;;;;;;9.83;4.10;;;38.40;64.50;;;;;;5013427;28;20454;-71
2022/07/20 10:44:55;;;;;;;7.80;4.03;;;38.20;64.40;;;;;;5013014;28;20489;-72
2022/07/20 10:47:43;;;;;;;9.80;3.77;;;38.20;65.50;;;;;;5013143;28;20473;-71
2022/07/20 10:50:11;;;;;;;7.70;3.87;;;38.40;65.00;;;;;;5012995;28;20496;-71
2022/07/20 10:52:38;;;;;;;5.00;3.83;;;38.70;65.10;;;;;;5012960;28;20859;-71
2022/07/20 10:55:06;;;;;;;6.37;3.40;;;39.00;64.00;;;;;;5012778;28;20485;-71
2022/07/20 10:57:33;;;;;;;6.70;4.00;;;39.30;63.20;;;;;;5013018;28;20564;-71
2022/07/20 11:00:11;;;;;;;5.23;3.30;;;39.40;62.70;;;;;;5013056;28;20454;-70
2022/07/20 11:02:38;;;;;;;5.33;4.23;;;39.20;64.00;;;;;;5012713;28;20508;-71
2022/07/20 11:05:20;;;;;;;5.80;4.00;;;39.30;63.90;;;;;;5012676;28;20829;-70
2022/07/20 11:07:46;;;;;;;9.17;4.53;;;39.50;62.90;;;;;;4993066;28;20478;-71
2022/07/20 11:10:22;;;;;;;6.17;4.13;;;39.40;61.70;;;;;;4993093;28;20454;-70
2022/07/20 11:12:56;;;;;;;5.80;4.07;;;39.30;63.10;;;;;;4992807;28;20458;-70
2022/07/20 11:15:24;;;;;;;15.20;4.43;;;39.60;63.30;;;;;;4992823;28;21041;-70
2022/07/20 11:17:54;;;;;;;6.13;4.20;;;39.70;62.10;;;;;;4993022;28;20478;-70
2022/07/20 11:20:22;;;;;;;13.27;4.33;;;40.00;62.30;;;;;;4993004;28;20457;-70
2022/07/20 11:22:49;;;;;;;5.07;4.20;;;40.20;60.70;;;;;;4992877;28;20459;-70
2022/07/20 11:25:16;;;;;;;6.90;3.80;;;40.10;61.00;;;;;;4992382;28;20463;-71
2022/07/20 11:27:42;;;;;;;7.00;3.97;;;40.10;60.40;;;;;;4992898;28;20502;-71
2022/07/20 11:30:10;;;;;;;6.33;4.47;;;40.20;59.70;;;;;;4992968;28;20454;-70
2022/07/20 11:32:51;;;;;;;4.60;3.97;;;39.90;59.90;;;;;;4992966;28;20442;-71
2022/07/20 11:35:18;;;;;;;10.33;4.13;;;39.50;60.50;;;;;;4992416;28;20525;-70
2022/07/20 11:37:51;;;;;;;8.20;4.47;;;38.90;60.80;;;;;;4992333;28;20475;-70
2022/07/20 11:40:18;;;;;;;13.40;4.50;;;38.60;62.00;;;;;;4992641;28;20446;-70
2022/07/20 11:43:05;;;;;;;6.13;4.20;;;38.90;61.50;;;;;;4992139;28;20438;-70
2022/07/20 11:45:32;;;;;;;9.53;4.03;;;39.20;60.40;;;;;;4992367;28;20450;-70
2022/07/20 11:47:58;;;;;;;8.90;4.40;;;39.20;60.30;;;;;;4992299;28;20493;-70
2022/07/20 11:50:32;;;;;;;8.90;4.53;;;39.00;60.20;;;;;;4992476;28;20458;-70
2022/07/20 11:53:00;;;;;;;9.23;4.20;;;39.10;59.80;;;;;;4992456;28;20455;-70
2022/07/20 11:55:35;;;;;;;6.20;4.50;;;39.30;61.00;;;;;;4992389;28;21058;-70
2022/07/20 11:58:01;;;;;;;10.47;4.20;;;39.30;59.70;;;;;;4992442;28;20532;-70
2022/07/20 12:00:28;;;;;;;6.43;4.23;;;39.60;61.00;;;;;;4992229;28;20497;-70
2022/07/20 12:02:55;;;;;;;19.03;5.27;;;39.60;59.70;;;;;;4995994;28;20913;-70
2022/07/20 12:05:22;;;;;;;12.33;4.63;;;39.10;59.30;;;;;;5011780;28;20442;-70
2022/07/20 12:10:35;;;;;;;4.73;4.33;;;39.30;59.40;;;;;;5011893;28;20501;-70
2022/07/20 12:13:03;;;;;;;5.93;4.07;;;39.80;59.60;;;;;;5012055;28;20814;-70
2022/07/20 12:15:30;;;;;;;5.40;4.23;;;40.10;59.60;;;;;;5011723;28;20555;-71
2022/07/20 12:17:56;;;;;;;6.30;3.90;;;40.10;59.30;;;;;;5011920;28;20449;-70
2022/07/20 12:20:24;;;;;;;10.67;4.50;;;40.40;59.70;;;;;;5011943;28;20472;-70
2022/07/20 12:22:52;;;;;;;9.37;4.20;;;40.90;59.20;;;;;;5012306;28;20548;-70
2022/07/20 12:25:19;;;;;;;12.87;4.20;;;41.10;58.10;;;;;;5011258;28;20454;-70
2022/07/20 12:27:47;;;;;;;8.30;4.83;;;41.30;58.40;;;;;;5011875;28;20469;-70
2022/07/20 12:30:27;;;;;;;6.90;4.37;;;41.60;57.70;;;;;;5011724;28;20503;-71
2022/07/20 12:33:05;;;;;;;6.40;4.30;;;41.70;56.80;;;;;;5011758;28;20457;-70
2022/07/20 12:35:33;;;;;;;7.37;4.70;;;41.60;57.20;;;;;;5011227;28;20484;-70
2022/07/20 12:37:59;;;;;;;4.67;4.27;;;41.80;56.80;;;;;;5011879;28;20207;-70
2022/07/20 12:40:42;;;;;;;5.57;4.40;;;41.50;56.20;;;;;;5011554;28;20872;-70
2022/07/20 12:43:35;;;;;;;6.57;4.40;;;41.00;56.50;;;;;;5011619;28;20909;-70
2022/07/20 12:46:06;;;;;;;4.60;4.10;;;40.50;56.90;;;;;;4997111;28;20891;-70
2022/07/20 12:48:34;;;;;;;14.33;5.00;;;40.30;57.40;;;;;;5011709;28;20466;-70
2022/07/20 12:51:00;;;;;;;6.93;3.90;;;39.90;57.50;;;;;;5011696;28;20480;-70
2022/07/20 12:53:28;;;;;;;5.70;3.73;;;40.00;58.40;;;;;;5014027;28;20453;-71